Skip Navigation Links
NOAA logo - Click to go to the NOAA homepage
NOAA's National Weather Service
Alaska Aviation Weather Unit
  NWS logo - Click to go to the NWS homepage
Left Navbar Graphic     23 AKDT = 07 GMT

   
NOAA is celebrating 200 years of science, service, and stewardship. Visit the NOAA 200th celebration Web site to learn more.
USA.gov is the U.S. Government's official Web portal to all Federal, state and local government Web resources and services.
Facebook
NWS on Facebook

AAWU Home :: Display TAF Add Bookmark
METAR PABV 240156Z AUTO 28005KT 10SM OVC065 10/01 A2967 RMK AO2
 SLP056 T01000006 $=

METAR PABV 240256Z AUTO 00000KT 10SM BKN075 11/01 A2966 RMK AO2
 SLP054 T01060006 56007 $=

METAR PABV 240356Z AUTO 00000KT 10SM SCT110 12/01 A2966 RMK AO2
 SLP053 T01170011 $=

METAR PABV 240456Z AUTO 00000KT 10SM BKN070 12/01 A2966 RMK AO2 SLP053
     T01170011 $=

METAR PABV 240556Z AUTO 13003KT 10SM OVC070 10/02 A2966 RMK AO2 SLP053
     T01000022 10117 20094 57000 $=

METAR PABV 240656Z AUTO 13005KT 10SM OVC075 09/01 A2966 RMK AO2
 SLP053 T00940011 $=


NOAA's National Weather Service
Alaska Aviation Weather Unit
6930 Sand Lake Road
Anchorage, AK 99502-1845
Disclaimer
Credits
Glossary
Privacy Policy
About Us
Career Opportunities
Contact AAWU Internet Services Site last modified: April, 17th 2012